sensor_id;sensor_type;location;lat;lon;timestamp;temperature;humidity
28835;DHT22;15969;51.536;11.884;2023-04-20T00:01:33;6.90;99.90
28835;DHT22;15969;51.536;11.884;2023-04-20T00:03:58;7.00;99.90
28835;DHT22;15969;51.536;11.884;2023-04-20T00:06:25;6.90;99.90
28835;DHT22;15969;51.536;11.884;2023-04-20T00:08:54;6.90;99.90
28835;DHT22;15969;51.536;11.884;2023-04-20T00:11:20;6.90;99.90
28835;DHT22;15969;51.536;11.884;2023-04-20T00:13:45;6.90;99.90
28835;DHT22;15969;51.536;11.884;2023-04-20T00:16:11;6.90;99.90
28835;DHT22;15969;51.536;11.884;2023-04-20T00:18:37;6.80;99.90
28835;DHT22;15969;51.536;11.884;2023-04-20T00:21:04;6.90;99.90
28835;DHT22;15969;51.536;11.884;2023-04-20T00:23:29;6.80;99.90
28835;DHT22;15969;51.536;11.884;2023-04-20T00:25:55;6.80;99.90
28835;DHT22;15969;51.536;11.884;2023-04-20T00:28:21;6.80;99.90
28835;DHT22;15969;51.536;11.884;2023-04-20T00:30:47;6.80;99.90
28835;DHT22;15969;51.536;11.884;2023-04-20T00:33:13;6.80;99.90
28835;DHT22;15969;51.536;11.884;2023-04-20T00:35:39;6.70;99.90
28835;DHT22;15969;51.536;11.884;2023-04-20T00:38:04;6.70;99.90
28835;DHT22;15969;51.536;11.884;2023-04-20T00:40:30;6.80;99.90
28835;DHT22;15969;51.536;11.884;2023-04-20T00:42:56;6.80;99.90
28835;DHT22;15969;51.536;11.884;2023-04-20T00:45:21;6.70;99.90
28835;DHT22;15969;51.536;11.884;2023-04-20T00:47:47;6.80;99.90
28835;DHT22;15969;51.536;11.884;2023-04-20T00:50:14;6.80;99.90
28835;DHT22;15969;51.536;11.884;2023-04-20T00:52:40;6.80;99.90
28835;DHT22;15969;51.536;11.884;2023-04-20T00:55:06;6.90;99.90
28835;DHT22;15969;51.536;11.884;2023-04-20T00:57:32;6.90;99.90
28835;DHT22;15969;51.536;11.884;2023-04-20T00:59:57;6.80;99.90
28835;DHT22;15969;51.536;11.884;2023-04-20T01:02:23;6.80;99.90
28835;DHT22;15969;51.536;11.884;2023-04-20T01:04:50;6.90;99.90
28835;DHT22;15969;51.536;11.884;2023-04-20T01:07:16;6.80;99.90
28835;DHT22;15969;51.536;11.884;2023-04-20T01:09:41;6.80;99.90
28835;DHT22;15969;51.536;11.884;2023-04-20T01:12:08;6.70;99.90
28835;DHT22;15969;51.536;11.884;2023-04-20T01:14:34;6.70;99.90
28835;DHT22;15969;51.536;11.884;2023-04-20T01:17:00;6.60;99.90
28835;DHT22;15969;51.536;11.884;2023-04-20T01:19:28;6.60;99.90
28835;DHT22;15969;51.536;11.884;2023-04-20T01:21:54;6.50;99.90
28835;DHT22;15969;51.536;11.884;2023-04-20T01:24:20;6.50;99.90
28835;DHT22;15969;51.536;11.884;2023-04-20T01:26:45;6.50;99.90
28835;DHT22;15969;51.536;11.884;2023-04-20T01:29:11;6.60;99.90
28835;DHT22;15969;51.536;11.884;2023-04-20T01:31:37;6.60;99.90
28835;DHT22;15969;51.536;11.884;2023-04-20T01:34:02;6.70;99.90
28835;DHT22;15969;51.536;11.884;2023-04-20T01:36:28;6.60;99.90
28835;DHT22;15969;51.536;11.884;2023-04-20T01:38:54;6.60;99.90
28835;DHT22;15969;51.536;11.884;2023-04-20T01:41:20;6.60;99.90
28835;DHT22;15969;51.536;11.884;2023-04-20T01:43:46;6.70;99.90
28835;DHT22;15969;51.536;11.884;2023-04-20T01:46:11;6.70;99.90
28835;DHT22;15969;51.536;11.884;2023-04-20T01:48:37;6.70;99.90
28835;DHT22;15969;51.536;11.884;2023-04-20T01:51:03;6.80;99.90
28835;DHT22;15969;51.536;11.884;2023-04-20T01:53:29;6.80;99.90
28835;DHT22;15969;51.536;11.884;2023-04-20T01:55:54;6.80;99.90
28835;DHT22;15969;51.536;11.884;2023-04-20T01:58:20;6.60;99.90
28835;DHT22;15969;51.536;11.884;2023-04-20T02:00:46;6.70;99.90
28835;DHT22;15969;51.536;11.884;2023-04-20T02:03:11;6.60;99.90
28835;DHT22;15969;51.536;11.884;2023-04-20T02:05:37;6.70;99.90
28835;DHT22;15969;51.536;11.884;2023-04-20T02:08:03;6.70;99.90
28835;DHT22;15969;51.536;11.884;2023-04-20T02:10:29;6.80;99.90
28835;DHT22;15969;51.536;11.884;2023-04-20T02:12:54;6.80;99.90
28835;DHT22;15969;51.536;11.884;2023-04-20T02:15:20;6.90;99.90
28835;DHT22;15969;51.536;11.884;2023-04-20T02:17:46;6.90;99.90
28835;DHT22;15969;51.536;11.884;2023-04-20T02:20:16;6.90;99.90
28835;DHT22;15969;51.536;11.884;2023-04-20T02:22:44;7.00;99.90
28835;DHT22;15969;51.536;11.884;2023-04-20T02:25:09;7.00;99.90
28835;DHT22;15969;51.536;11.884;2023-04-20T02:27:35;7.10;99.90
28835;DHT22;15969;51.536;11.884;2023-04-20T02:30:01;7.10;99.90
28835;DHT22;15969;51.536;11.884;2023-04-20T02:32:27;7.20;99.90
28835;DHT22;15969;51.536;11.884;2023-04-20T02:34:53;7.20;99.90
28835;DHT22;15969;51.536;11.884;2023-04-20T02:37:18;7.20;99.90
28835;DHT22;15969;51.536;11.884;2023-04-20T02:39:44;7.20;99.90
28835;DHT22;15969;51.536;11.884;2023-04-20T02:42:10;7.30;99.90
28835;DHT22;15969;51.536;11.884;2023-04-20T02:44:36;7.20;99.90
28835;DHT22;15969;51.536;11.884;2023-04-20T02:47:01;7.20;99.90
28835;DHT22;15969;51.536;11.884;2023-04-20T02:49:27;7.20;99.90
28835;DHT22;15969;51.536;11.884;2023-04-20T02:51:53;7.10;99.90
28835;DHT22;15969;51.536;11.884;2023-04-20T02:54:18;7.20;99.90
28835;DHT22;15969;51.536;11.884;2023-04-20T02:56:44;7.20;99.90
28835;DHT22;15969;51.536;11.884;2023-04-20T02:59:10;7.20;99.90
28835;DHT22;15969;51.536;11.884;2023-04-20T03:01:35;7.30;99.90
28835;DHT22;15969;51.536;11.884;2023-04-20T03:04:01;7.30;99.90
28835;DHT22;15969;51.536;11.884;2023-04-20T03:06:27;7.30;99.90
28835;DHT22;15969;51.536;11.884;2023-04-20T03:08:53;7.30;99.90
28835;DHT22;15969;51.536;11.884;2023-04-20T03:11:18;7.20;99.90
28835;DHT22;15969;51.536;11.884;2023-04-20T03:13:44;7.20;99.90
28835;DHT22;15969;51.536;11.884;2023-04-20T03:16:09;7.00;99.90
28835;DHT22;15969;51.536;11.884;2023-04-20T03:18:35;7.00;99.90
28835;DHT22;15969;51.536;11.884;2023-04-20T03:21:01;7.10;99.90
28835;DHT22;15969;51.536;11.884;2023-04-20T03:23:27;7.10;99.90
28835;DHT22;15969;51.536;11.884;2023-04-20T03:25:52;7.00;99.90
28835;DHT22;15969;51.536;11.884;2023-04-20T03:28:18;6.90;99.90
28835;DHT22;15969;51.536;11.884;2023-04-20T03:30:44;6.90;99.90
28835;DHT22;15969;51.536;11.884;2023-04-20T03:33:10;6.90;99.90
28835;DHT22;15969;51.536;11.884;2023-04-20T03:35:36;6.90;99.90
28835;DHT22;15969;51.536;11.884;2023-04-20T03:38:03;6.90;99.90
28835;DHT22;15969;51.536;11.884;2023-04-20T03:40:29;6.90;99.90
28835;DHT22;15969;51.536;11.884;2023-04-20T03:42:55;7.00;99.90
28835;DHT22;15969;51.536;11.884;2023-04-20T03:45:20;7.00;99.90
28835;DHT22;15969;51.536;11.884;2023-04-20T03:47:46;7.10;99.90
28835;DHT22;15969;51.536;11.884;2023-04-20T03:50:12;7.00;99.90
28835;DHT22;15969;51.536;11.884;2023-04-20T03:52:37;6.90;99.90
28835;DHT22;15969;51.536;11.884;2023-04-20T03:55:03;6.90;99.90
28835;DHT22;15969;51.536;11.884;2023-04-20T03:57:29;6.90;99.90
28835;DHT22;15969;51.536;11.884;2023-04-20T03:59:55;6.90;99.90
28835;DHT22;15969;51.536;11.884;2023-04-20T04:02:21;6.80;99.90
28835;DHT22;15969;51.536;11.884;2023-04-20T04:04:46;6.90;99.90
28835;DHT22;15969;51.536;11.884;2023-04-20T04:07:12;6.80;99.90
28835;DHT22;15969;51.536;11.884;2023-04-20T04:09:38;6.80;99.90
28835;DHT22;15969;51.536;11.884;2023-04-20T04:12:03;6.80;99.90
28835;DHT22;15969;51.536;11.884;2023-04-20T04:14:32;6.80;99.90
28835;DHT22;15969;51.536;11.884;2023-04-20T04:16:58;6.80;99.90
28835;DHT22;15969;51.536;11.884;2023-04-20T04:19:23;6.80;99.90
28835;DHT22;15969;51.536;11.884;2023-04-20T04:21:49;6.90;99.90
28835;DHT22;15969;51.536;11.884;2023-04-20T04:24:15;6.90;99.90
28835;DHT22;15969;51.536;11.884;2023-04-20T04:26:42;6.90;99.90
28835;DHT22;15969;51.536;11.884;2023-04-20T04:29:07;6.90;99.90
28835;DHT22;15969;51.536;11.884;2023-04-20T04:31:34;6.90;99.90
28835;DHT22;15969;51.536;11.884;2023-04-20T04:34:00;6.90;99.90
28835;DHT22;15969;51.536;11.884;2023-04-20T04:36:26;6.90;99.90
28835;DHT22;15969;51.536;11.884;2023-04-20T04:38:52;7.00;99.90
28835;DHT22;15969;51.536;11.884;2023-04-20T04:41:18;7.00;99.90
28835;DHT22;15969;51.536;11.884;2023-04-20T04:43:44;6.90;99.90
28835;DHT22;15969;51.536;11.884;2023-04-20T04:46:10;7.00;99.90
28835;DHT22;15969;51.536;11.884;2023-04-20T04:48:39;7.10;99.90
28835;DHT22;15969;51.536;11.884;2023-04-20T04:51:07;7.20;99.90
28835;DHT22;15969;51.536;11.884;2023-04-20T04:53:33;7.30;99.90
28835;DHT22;15969;51.536;11.884;2023-04-20T04:55:59;7.30;99.90
28835;DHT22;15969;51.536;11.884;2023-04-20T04:58:25;7.30;99.90
28835;DHT22;15969;51.536;11.884;2023-04-20T05:00:50;7.40;99.90
28835;DHT22;15969;51.536;11.884;2023-04-20T05:03:16;7.40;99.90
28835;DHT22;15969;51.536;11.884;2023-04-20T05:05:42;7.50;99.90
28835;DHT22;15969;51.536;11.884;2023-04-20T05:08:07;7.50;99.90
28835;DHT22;15969;51.536;11.884;2023-04-20T05:10:33;7.60;99.90
28835;DHT22;15969;51.536;11.884;2023-04-20T05:12:59;7.60;99.90
28835;DHT22;15969;51.536;11.884;2023-04-20T05:15:25;7.60;99.90
28835;DHT22;15969;51.536;11.884;2023-04-20T05:17:51;7.60;99.90
28835;DHT22;15969;51.536;11.884;2023-04-20T05:20:17;7.60;99.90
28835;DHT22;15969;51.536;11.884;2023-04-20T05:22:43;7.70;99.90
28835;DHT22;15969;51.536;11.884;2023-04-20T05:25:09;7.70;99.90
28835;DHT22;15969;51.536;11.884;2023-04-20T05:27:35;7.80;99.90
28835;DHT22;15969;51.536;11.884;2023-04-20T05:30:00;7.80;99.90
28835;DHT22;15969;51.536;11.884;2023-04-20T05:32:26;7.90;99.90
28835;DHT22;15969;51.536;11.884;2023-04-20T05:34:52;7.90;99.90
28835;DHT22;15969;51.536;11.884;2023-04-20T05:37:17;7.80;99.90
28835;DHT22;15969;51.536;11.884;2023-04-20T05:39:43;7.70;99.90
28835;DHT22;15969;51.536;11.884;2023-04-20T05:42:09;7.60;99.90
28835;DHT22;15969;51.536;11.884;2023-04-20T05:44:34;7.60;99.90
28835;DHT22;15969;51.536;11.884;2023-04-20T05:47:01;7.60;99.90
28835;DHT22;15969;51.536;11.884;2023-04-20T05:49:31;7.60;99.90
28835;DHT22;15969;51.536;11.884;2023-04-20T05:51:57;7.60;99.90
28835;DHT22;15969;51.536;11.884;2023-04-20T05:54:23;7.60;99.90
28835;DHT22;15969;51.536;11.884;2023-04-20T05:56:48;7.60;99.90
28835;DHT22;15969;51.536;11.884;2023-04-20T05:59:14;7.60;99.90
28835;DHT22;15969;51.536;11.884;2023-04-20T06:01:41;7.60;99.90
28835;DHT22;15969;51.536;11.884;2023-04-20T06:04:07;7.50;99.90
28835;DHT22;15969;51.536;11.884;2023-04-20T06:06:32;7.60;99.90
28835;DHT22;15969;51.536;11.884;2023-04-20T06:08:58;7.50;99.90
28835;DHT22;15969;51.536;11.884;2023-04-20T06:11:24;7.60;99.90
28835;DHT22;15969;51.536;11.884;2023-04-20T06:13:50;7.60;99.90
28835;DHT22;15969;51.536;11.884;2023-04-20T06:16:15;7.50;99.90
28835;DHT22;15969;51.536;11.884;2023-04-20T06:18:41;7.70;99.90
28835;DHT22;15969;51.536;11.884;2023-04-20T06:21:10;7.60;99.90
28835;DHT22;15969;51.536;11.884;2023-04-20T06:23:36;7.60;99.90
28835;DHT22;15969;51.536;11.884;2023-04-20T06:26:05;7.70;99.90
28835;DHT22;15969;51.536;11.884;2023-04-20T06:28:33;7.70;99.90
28835;DHT22;15969;51.536;11.884;2023-04-20T06:31:00;7.70;99.90
28835;DHT22;15969;51.536;11.884;2023-04-20T06:33:25;7.80;99.90
28835;DHT22;15969;51.536;11.884;2023-04-20T06:35:51;7.80;99.90
28835;DHT22;15969;51.536;11.884;2023-04-20T06:38:19;7.70;99.90
28835;DHT22;15969;51.536;11.884;2023-04-20T06:40:45;7.70;99.90
28835;DHT22;15969;51.536;11.884;2023-04-20T06:43:10;7.70;99.90
28835;DHT22;15969;51.536;11.884;2023-04-20T06:45:36;7.70;99.90
28835;DHT22;15969;51.536;11.884;2023-04-20T06:48:02;7.80;99.90
28835;DHT22;15969;51.536;11.884;2023-04-20T06:50:28;7.80;99.90
28835;DHT22;15969;51.536;11.884;2023-04-20T06:52:54;7.80;99.90
28835;DHT22;15969;51.536;11.884;2023-04-20T06:55:19;7.80;99.90
28835;DHT22;15969;51.536;11.884;2023-04-20T06:57:45;7.80;99.90
28835;DHT22;15969;51.536;11.884;2023-04-20T07:00:11;7.90;99.90
28835;DHT22;15969;51.536;11.884;2023-04-20T07:02:48;7.90;99.90
28835;DHT22;15969;51.536;11.884;2023-04-20T07:05:15;8.00;99.90
28835;DHT22;15969;51.536;11.884;2023-04-20T07:07:41;8.10;99.90
28835;DHT22;15969;51.536;11.884;2023-04-20T07:10:09;8.10;99.90
28835;DHT22;15969;51.536;11.884;2023-04-20T07:12:36;8.20;99.90
28835;DHT22;15969;51.536;11.884;2023-04-20T07:15:04;8.20;99.90
28835;DHT22;15969;51.536;11.884;2023-04-20T07:17:31;8.30;99.90
28835;DHT22;15969;51.536;11.884;2023-04-20T07:19:57;8.30;99.90
28835;DHT22;15969;51.536;11.884;2023-04-20T07:22:24;8.30;99.90
28835;DHT22;15969;51.536;11.884;2023-04-20T07:24:49;8.30;99.90
28835;DHT22;15969;51.536;11.884;2023-04-20T07:27:16;8.40;99.90
28835;DHT22;15969;51.536;11.884;2023-04-20T07:29:42;8.30;99.90
28835;DHT22;15969;51.536;11.884;2023-04-20T07:32:07;8.40;99.90
28835;DHT22;15969;51.536;11.884;2023-04-20T07:34:33;8.30;99.90
28835;DHT22;15969;51.536;11.884;2023-04-20T07:36:59;8.30;99.90
28835;DHT22;15969;51.536;11.884;2023-04-20T07:39:24;8.50;99.90
28835;DHT22;15969;51.536;11.884;2023-04-20T07:41:53;8.60;99.90
28835;DHT22;15969;51.536;11.884;2023-04-20T07:44:18;8.70;99.90
28835;DHT22;15969;51.536;11.884;2023-04-20T07:46:44;8.70;99.90
28835;DHT22;15969;51.536;11.884;2023-04-20T07:49:10;8.70;99.90
28835;DHT22;15969;51.536;11.884;2023-04-20T07:51:35;8.70;99.90
28835;DHT22;15969;51.536;11.884;2023-04-20T07:54:01;8.70;99.90
28835;DHT22;15969;51.536;11.884;2023-04-20T07:56:27;8.70;99.90
28835;DHT22;15969;51.536;11.884;2023-04-20T07:58:53;8.60;99.90
28835;DHT22;15969;51.536;11.884;2023-04-20T08:01:23;8.70;99.90
28835;DHT22;15969;51.536;11.884;2023-04-20T08:03:49;8.70;99.90
28835;DHT22;15969;51.536;11.884;2023-04-20T08:06:15;8.80;99.90
28835;DHT22;15969;51.536;11.884;2023-04-20T08:08:41;8.80;99.90
28835;DHT22;15969;51.536;11.884;2023-04-20T08:11:07;8.90;99.90
28835;DHT22;15969;51.536;11.884;2023-04-20T08:13:34;9.10;99.90
28835;DHT22;15969;51.536;11.884;2023-04-20T08:15:59;9.30;99.90
28835;DHT22;15969;51.536;11.884;2023-04-20T08:18:25;9.50;99.90
28835;DHT22;15969;51.536;11.884;2023-04-20T08:20:51;9.60;99.90
28835;DHT22;15969;51.536;11.884;2023-04-20T08:23:16;9.60;99.90
28835;DHT22;15969;51.536;11.884;2023-04-20T08:25:42;9.60;99.90
28835;DHT22;15969;51.536;11.884;2023-04-20T08:28:08;9.80;99.90
28835;DHT22;15969;51.536;11.884;2023-04-20T08:30:33;9.80;99.90
28835;DHT22;15969;51.536;11.884;2023-04-20T08:32:59;9.70;99.90
28835;DHT22;15969;51.536;11.884;2023-04-20T08:35:25;9.80;99.90
28835;DHT22;15969;51.536;11.884;2023-04-20T08:37:51;9.80;99.90
28835;DHT22;15969;51.536;11.884;2023-04-20T08:40:17;9.60;99.90
28835;DHT22;15969;51.536;11.884;2023-04-20T08:42:45;9.60;99.90
28835;DHT22;15969;51.536;11.884;2023-04-20T08:45:11;9.60;99.90
28835;DHT22;15969;51.536;11.884;2023-04-20T08:47:38;9.60;99.90
28835;DHT22;15969;51.536;11.884;2023-04-20T08:50:04;9.50;99.90
28835;DHT22;15969;51.536;11.884;2023-04-20T08:52:31;9.50;99.90
28835;DHT22;15969;51.536;11.884;2023-04-20T08:54:57;9.50;99.90
28835;DHT22;15969;51.536;11.884;2023-04-20T08:57:23;9.60;99.90
28835;DHT22;15969;51.536;11.884;2023-04-20T08:59:49;9.60;99.90
28835;DHT22;15969;51.536;11.884;2023-04-20T09:02:15;9.60;99.90
28835;DHT22;15969;51.536;11.884;2023-04-20T09:04:40;9.80;99.90
28835;DHT22;15969;51.536;11.884;2023-04-20T09:07:16;9.90;99.90
28835;DHT22;15969;51.536;11.884;2023-04-20T09:09:53;10.00;99.90
28835;DHT22;15969;51.536;11.884;2023-04-20T09:12:20;10.10;99.90
28835;DHT22;15969;51.536;11.884;2023-04-20T09:14:46;10.20;99.90
28835;DHT22;15969;51.536;11.884;2023-04-20T09:17:13;10.40;99.90
28835;DHT22;15969;51.536;11.884;2023-04-20T09:19:40;10.60;99.90
28835;DHT22;15969;51.536;11.884;2023-04-20T09:22:08;10.80;99.90
28835;DHT22;15969;51.536;11.884;2023-04-20T09:24:35;11.10;99.90
28835;DHT22;15969;51.536;11.884;2023-04-20T09:27:16;11.20;99.90
28835;DHT22;15969;51.536;11.884;2023-04-20T09:29:43;11.30;99.90
28835;DHT22;15969;51.536;11.884;2023-04-20T09:32:21;11.40;99.90
28835;DHT22;15969;51.536;11.884;2023-04-20T09:34:52;11.60;99.90
28835;DHT22;15969;51.536;11.884;2023-04-20T09:37:17;11.70;99.90
28835;DHT22;15969;51.536;11.884;2023-04-20T09:39:44;11.50;99.90
28835;DHT22;15969;51.536;11.884;2023-04-20T09:42:14;11.50;99.90
28835;DHT22;15969;51.536;11.884;2023-04-20T09:44:41;11.40;99.90
28835;DHT22;15969;51.536;11.884;2023-04-20T09:47:08;11.30;99.90
28835;DHT22;15969;51.536;11.884;2023-04-20T09:49:34;11.20;99.90
28835;DHT22;15969;51.536;11.884;2023-04-20T09:52:03;11.00;99.90
28835;DHT22;15969;51.536;11.884;2023-04-20T09:54:30;10.80;99.90
28835;DHT22;15969;51.536;11.884;2023-04-20T09:56:58;10.80;99.90
28835;DHT22;15969;51.536;11.884;2023-04-20T09:59:24;10.70;99.90
28835;DHT22;15969;51.536;11.884;2023-04-20T10:01:50;10.70;99.90
28835;DHT22;15969;51.536;11.884;2023-04-20T10:04:17;10.80;99.90
28835;DHT22;15969;51.536;11.884;2023-04-20T10:06:53;11.10;99.90
28835;DHT22;15969;51.536;11.884;2023-04-20T10:09:23;11.30;99.90
28835;DHT22;15969;51.536;11.884;2023-04-20T10:12:04;11.40;99.90
28835;DHT22;15969;51.536;11.884;2023-04-20T10:14:31;11.40;99.90
28835;DHT22;15969;51.536;11.884;2023-04-20T10:17:05;11.30;99.90
28835;DHT22;15969;51.536;11.884;2023-04-20T10:19:39;11.50;99.90
28835;DHT22;15969;51.536;11.884;2023-04-20T10:22:12;11.60;99.90
28835;DHT22;15969;51.536;11.884;2023-04-20T10:24:38;11.50;99.90
28835;DHT22;15969;51.536;11.884;2023-04-20T10:27:23;11.50;99.90
28835;DHT22;15969;51.536;11.884;2023-04-20T10:29:48;11.40;99.90
28835;DHT22;15969;51.536;11.884;2023-04-20T10:32:21;11.40;99.90
28835;DHT22;15969;51.536;11.884;2023-04-20T10:35:05;11.40;99.90
28835;DHT22;15969;51.536;11.884;2023-04-20T10:37:33;11.50;99.90
28835;DHT22;15969;51.536;11.884;2023-04-20T10:39:59;11.60;99.90
28835;DHT22;15969;51.536;11.884;2023-04-20T10:42:25;11.60;99.90
28835;DHT22;15969;51.536;11.884;2023-04-20T10:44:52;11.80;99.90
28835;DHT22;15969;51.536;11.884;2023-04-20T10:47:29;11.80;99.90
28835;DHT22;15969;51.536;11.884;2023-04-20T10:50:11;12.10;99.90
28835;DHT22;15969;51.536;11.884;2023-04-20T10:52:40;12.20;99.90
28835;DHT22;15969;51.536;11.884;2023-04-20T10:55:18;12.40;99.90
28835;DHT22;15969;51.536;11.884;2023-04-20T10:57:48;12.40;99.90
28835;DHT22;15969;51.536;11.884;2023-04-20T11:00:22;12.40;99.90
28835;DHT22;15969;51.536;11.884;2023-04-20T11:02:59;12.50;99.90
28835;DHT22;15969;51.536;11.884;2023-04-20T11:05:26;12.50;99.90
28835;DHT22;15969;51.536;11.884;2023-04-20T11:07:57;12.50;99.90
28835;DHT22;15969;51.536;11.884;2023-04-20T11:10:37;12.70;99.90
28835;DHT22;15969;51.536;11.884;2023-04-20T11:13:06;12.70;99.90
28835;DHT22;15969;51.536;11.884;2023-04-20T11:15:43;12.90;99.90
28835;DHT22;15969;51.536;11.884;2023-04-20T11:18:09;13.00;99.90
28835;DHT22;15969;51.536;11.884;2023-04-20T11:20:36;13.00;99.90
28835;DHT22;15969;51.536;11.884;2023-04-20T11:23:02;13.00;99.90
28835;DHT22;15969;51.536;11.884;2023-04-20T11:25:30;13.10;99.90
28835;DHT22;15969;51.536;11.884;2023-04-20T11:28:07;13.10;99.90
28835;DHT22;15969;51.536;11.884;2023-04-20T11:30:39;13.20;99.90
28835;DHT22;15969;51.536;11.884;2023-04-20T11:33:06;13.10;99.90
28835;DHT22;15969;51.536;11.884;2023-04-20T11:35:39;13.10;99.90
28835;DHT22;15969;51.536;11.884;2023-04-20T11:38:07;13.00;99.90
28835;DHT22;15969;51.536;11.884;2023-04-20T11:40:33;12.80;99.90
28835;DHT22;15969;51.536;11.884;2023-04-20T11:42:59;12.60;99.90
28835;DHT22;15969;51.536;11.884;2023-04-20T11:45:25;12.60;99.90
28835;DHT22;15969;51.536;11.884;2023-04-20T11:47:53;12.50;99.90
28835;DHT22;15969;51.536;11.884;2023-04-20T11:50:19;12.50;99.90
28835;DHT22;15969;51.536;11.884;2023-04-20T11:52:46;12.40;99.90
28835;DHT22;15969;51.536;11.884;2023-04-20T11:55:11;12.40;99.90
28835;DHT22;15969;51.536;11.884;2023-04-20T11:57:37;12.40;99.90
28835;DHT22;15969;51.536;11.884;2023-04-20T12:00:03;12.50;99.90
28835;DHT22;15969;51.536;11.884;2023-04-20T12:02:30;12.40;99.90
28835;DHT22;15969;51.536;11.884;2023-04-20T12:04:56;12.40;99.90
28835;DHT22;15969;51.536;11.884;2023-04-20T12:07:23;12.30;99.90
28835;DHT22;15969;51.536;11.884;2023-04-20T12:09:48;12.30;99.90
28835;DHT22;15969;51.536;11.884;2023-04-20T12:12:14;12.20;99.90
28835;DHT22;15969;51.536;11.884;2023-04-20T12:14:40;11.90;99.90
28835;DHT22;15969;51.536;11.884;2023-04-20T12:17:05;11.80;99.90
28835;DHT22;15969;51.536;11.884;2023-04-20T12:19:31;11.60;99.90
28835;DHT22;15969;51.536;11.884;2023-04-20T12:21:57;11.50;99.90
28835;DHT22;15969;51.536;11.884;2023-04-20T12:24:23;11.20;99.90
28835;DHT22;15969;51.536;11.884;2023-04-20T12:26:48;11.20;99.90
28835;DHT22;15969;51.536;11.884;2023-04-20T12:29:14;11.10;99.90
28835;DHT22;15969;51.536;11.884;2023-04-20T12:31:40;11.00;99.90
28835;DHT22;15969;51.536;11.884;2023-04-20T12:34:06;10.90;99.90
28835;DHT22;15969;51.536;11.884;2023-04-20T12:36:32;10.90;99.90
28835;DHT22;15969;51.536;11.884;2023-04-20T12:38:59;10.80;99.90
28835;DHT22;15969;51.536;11.884;2023-04-20T12:41:26;10.60;99.90
28835;DHT22;15969;51.536;11.884;2023-04-20T12:43:51;10.50;99.90
28835;DHT22;15969;51.536;11.884;2023-04-20T12:46:17;10.50;99.90
28835;DHT22;15969;51.536;11.884;2023-04-20T12:48:43;10.40;99.90
28835;DHT22;15969;51.536;11.884;2023-04-20T12:51:12;10.40;99.90
28835;DHT22;15969;51.536;11.884;2023-04-20T12:53:38;10.40;99.90
28835;DHT22;15969;51.536;11.884;2023-04-20T12:56:04;10.40;99.90
28835;DHT22;15969;51.536;11.884;2023-04-20T12:58:29;10.50;99.90
28835;DHT22;15969;51.536;11.884;2023-04-20T13:00:56;10.50;99.90
28835;DHT22;15969;51.536;11.884;2023-04-20T13:03:21;10.30;99.90
28835;DHT22;15969;51.536;11.884;2023-04-20T13:05:47;10.40;99.90
28835;DHT22;15969;51.536;11.884;2023-04-20T13:08:13;10.40;99.90
28835;DHT22;15969;51.536;11.884;2023-04-20T13:10:39;10.30;99.90
28835;DHT22;15969;51.536;11.884;2023-04-20T13:13:07;10.30;99.90
28835;DHT22;15969;51.536;11.884;2023-04-20T13:15:33;10.30;99.90
28835;DHT22;15969;51.536;11.884;2023-04-20T13:17:59;10.20;99.90
28835;DHT22;15969;51.536;11.884;2023-04-20T13:20:25;10.30;99.90
28835;DHT22;15969;51.536;11.884;2023-04-20T13:22:54;10.40;99.90
28835;DHT22;15969;51.536;11.884;2023-04-20T13:25:22;10.50;99.90
28835;DHT22;15969;51.536;11.884;2023-04-20T13:27:49;10.60;99.90
28835;DHT22;15969;51.536;11.884;2023-04-20T13:30:15;10.70;99.90
28835;DHT22;15969;51.536;11.884;2023-04-20T13:32:40;10.70;99.90
28835;DHT22;15969;51.536;11.884;2023-04-20T13:35:06;10.80;99.90
28835;DHT22;15969;51.536;11.884;2023-04-20T13:37:32;10.80;99.90
28835;DHT22;15969;51.536;11.884;2023-04-20T13:39:58;10.90;99.90
28835;DHT22;15969;51.536;11.884;2023-04-20T13:42:24;11.10;99.90
28835;DHT22;15969;51.536;11.884;2023-04-20T13:44:50;11.30;99.90
28835;DHT22;15969;51.536;11.884;2023-04-20T13:47:17;11.50;99.90
28835;DHT22;15969;51.536;11.884;2023-04-20T13:49:43;11.90;99.90
28835;DHT22;15969;51.536;11.884;2023-04-20T13:52:09;12.00;99.90
28835;DHT22;15969;51.536;11.884;2023-04-20T13:54:34;11.80;99.90
28835;DHT22;15969;51.536;11.884;2023-04-20T13:57:00;11.70;99.90
28835;DHT22;15969;51.536;11.884;2023-04-20T13:59:26;11.60;99.90
28835;DHT22;15969;51.536;11.884;2023-04-20T14:01:51;11.40;99.90
28835;DHT22;15969;51.536;11.884;2023-04-20T14:04:17;11.30;99.90
28835;DHT22;15969;51.536;11.884;2023-04-20T14:06:43;11.20;99.90
28835;DHT22;15969;51.536;11.884;2023-04-20T14:09:08;11.20;99.90
28835;DHT22;15969;51.536;11.884;2023-04-20T14:11:34;11.20;99.90
28835;DHT22;15969;51.536;11.884;2023-04-20T14:14:00;11.20;99.90
28835;DHT22;15969;51.536;11.884;2023-04-20T14:16:26;11.10;99.90
28835;DHT22;15969;51.536;11.884;2023-04-20T14:18:51;10.90;99.90
28835;DHT22;15969;51.536;11.884;2023-04-20T14:21:17;10.90;99.90
28835;DHT22;15969;51.536;11.884;2023-04-20T14:23:43;10.90;99.90
28835;DHT22;15969;51.536;11.884;2023-04-20T14:26:08;10.90;99.90
28835;DHT22;15969;51.536;11.884;2023-04-20T14:28:34;10.80;99.90
28835;DHT22;15969;51.536;11.884;2023-04-20T14:31:01;10.70;99.90
28835;DHT22;15969;51.536;11.884;2023-04-20T14:33:26;10.70;99.90
28835;DHT22;15969;51.536;11.884;2023-04-20T14:35:53;10.60;99.90
28835;DHT22;15969;51.536;11.884;2023-04-20T14:38:18;10.60;99.90
28835;DHT22;15969;51.536;11.884;2023-04-20T14:40:44;10.50;99.90
28835;DHT22;15969;51.536;11.884;2023-04-20T14:43:10;10.60;99.90
28835;DHT22;15969;51.536;11.884;2023-04-20T14:45:36;10.60;99.90
28835;DHT22;15969;51.536;11.884;2023-04-20T14:48:04;10.60;99.90
28835;DHT22;15969;51.536;11.884;2023-04-20T14:50:30;10.60;99.90
28835;DHT22;15969;51.536;11.884;2023-04-20T14:52:56;10.60;99.90
28835;DHT22;15969;51.536;11.884;2023-04-20T14:55:22;10.60;99.90
28835;DHT22;15969;51.536;11.884;2023-04-20T14:57:54;10.50;99.90
28835;DHT22;15969;51.536;11.884;2023-04-20T15:00:22;10.50;99.90
28835;DHT22;15969;51.536;11.884;2023-04-20T15:02:49;10.60;99.90
28835;DHT22;15969;51.536;11.884;2023-04-20T15:05:17;10.50;99.90
28835;DHT22;15969;51.536;11.884;2023-04-20T15:07:42;10.60;99.90
28835;DHT22;15969;51.536;11.884;2023-04-20T15:10:10;10.50;99.90
28835;DHT22;15969;51.536;11.884;2023-04-20T15:12:36;10.60;99.90
28835;DHT22;15969;51.536;11.884;2023-04-20T15:15:02;10.60;99.90
28835;DHT22;15969;51.536;11.884;2023-04-20T15:17:27;10.60;99.90
28835;DHT22;15969;51.536;11.884;2023-04-20T15:19:53;10.60;99.90
28835;DHT22;15969;51.536;11.884;2023-04-20T15:22:19;10.60;99.90